首页
METAR-TAF:

METAR-TAF

机场 :

沙加緬度, 加利福尼亚州, 美国

纬度: 38-33N, 经度: 121-18W, 海拔: 29米

当前天气观测

该预报发布于30分钟前的09:55 UTC
风速7节,风向东南
温度 12°C
湿度 58%
气压 1008 hPa
能見度: 16.1公里
少量云层高于3200英尺

METAR: KMHR 190955Z AUTO 13007KT 10SM FEW032 12/04 A2977 RMK A01

时间: 03:25 (10:25 UTC)

预报

该预报发布于5小时和1分钟前的05:24 UTC
预报有效从19日的 06点(UTC)到 20日的 06点(UTC)
风速7节,风向西南
能見度: 10公里
天空无云

TAF: KMHR 190524Z 1906/2006 22007KT P6SM SKC

超过4000个机场的气象观测和天气预报(METAR&TAF报告)。

可查询的气象台以黄色和红色小点在地图上表示。

将鼠标移到小点上方,可查看气象台名称。

然后点击查看天气观测和预报。

如需切换地图:点击带黑十字的绿色按钮放大地图;点击带横线的绿色按钮缩小地图;或者点击绿色箭头查看邻近地区的地图。


METAR-TAF: